Terminal Aerodrome Forecast
Issued by NWS

Home | Current Version | Previous Version | Text Only | Print | Product List | Glossary On
Versions: 1 2 3 4 5 6 7 8 9 10 11 12 13 14 15 16 17 18
118
FTUS41 KBGM 222332
TAFRME
TAF
KRME 222332Z 2300/2324 09005KT P6SM SCT040 BKN070
      TEMPO 2309/2313 5SM BR
     FM231400 19012G22KT P6SM BKN045
     FM232200 30008KT P6SM SCT015 OVC035=

USA.gov is the U.S. government's official web portal to all federal, state and local government web resources and services.